Time;durP1;ratioP1;P1;durP2;ratioP2;P2;SDS_P1;SDS_P2;PMS_P1;PMS_P2;Temp;Humidity;BMP_temperature;BMP_pressure;BME280_temperature;BME280_humidity;BME280_pressure;Samples;Min_cycle;Max_cycle;Signal;HPM_P1;HPM_P2
2023/02/27 00:00:44;;;;;;;4.40;0.65;;;;;;;8.06;35.66;100363.94;5054657;28;20048;-76
2023/02/27 00:03:39;;;;;;;1.40;0.98;;;;;;;8.10;35.61;100373.06;5034595;28;20040;-76
2023/02/27 00:06:31;;;;;;;1.00;0.90;;;;;;;8.04;35.36;100372.38;5035718;28;20044;-76
2023/02/27 00:09:23;;;;;;;1.23;0.82;;;;;;;8.08;35.56;100383.38;5035154;28;20048;-76
2023/02/27 00:12:15;;;;;;;0.88;0.60;;;;;;;7.62;36.35;100392.53;5043277;28;20051;-76
2023/02/27 00:15:12;;;;;;;3.42;0.80;;;;;;;7.30;37.13;100398.88;5054578;28;20044;-76
2023/02/27 00:18:05;;;;;;;4.68;1.10;;;;;;;7.25;37.25;100403.59;5055109;28;20044;-76
2023/02/27 00:20:59;;;;;;;2.00;0.95;;;;;;;7.14;37.91;100413.00;5055191;28;20048;-75
2023/02/27 00:23:54;;;;;;;0.85;0.75;;;;;;;7.32;37.19;100421.00;5054895;28;20055;-76
2023/02/27 00:26:46;;;;;;;5.60;0.80;;;;;;;7.25;37.32;100431.44;5056971;28;20036;-76
2023/02/27 00:29:40;;;;;;;1.63;0.80;;;;;;;7.66;37.43;100434.13;5055429;28;20526;-75
2023/02/27 00:32:35;;;;;;;3.53;1.05;;;;;;;8.11;36.55;100450.47;5054599;28;20527;-76
2023/02/27 00:35:29;;;;;;;1.43;0.87;;;;;;;8.30;39.75;100450.34;5055637;28;20044;-76
2023/02/27 00:38:22;;;;;;;0.20;0.20;;;;;;;8.33;43.01;100439.69;5054759;28;20044;-76
2023/02/27 00:41:14;;;;;;;0.30;0.30;;;;;;;8.32;43.58;100448.16;5051688;28;20408;-76
2023/02/27 00:44:06;;;;;;;0.60;0.60;;;;;;;8.45;43.57;100448.09;5050234;28;20036;-76
2023/02/27 00:46:59;;;;;;;0.63;0.40;;;;;;;8.41;43.43;100446.31;5055193;28;20043;-76
2023/02/27 00:49:49;;;;;;;0.63;0.30;;;;;;;8.46;42.61;100449.69;5055350;28;20073;-76
2023/02/27 00:52:43;;;;;;;0.40;0.40;;;;;;;8.26;42.25;100450.13;5054158;28;20430;-76
2023/02/27 00:55:38;;;;;;;3.40;0.28;;;;;;;8.43;42.26;100453.00;5054694;28;20044;-76
2023/02/27 00:58:30;;;;;;;1.15;0.73;;;;;;;8.43;42.61;100460.34;5054990;28;20056;-76
2023/02/27 01:01:24;;;;;;;0.55;0.30;;;;;;;8.36;41.63;100463.47;5059128;28;20048;-76
2023/02/27 01:04:14;;;;;;;0.30;0.30;;;;;;;8.41;41.62;100457.94;5054492;28;20044;-76
2023/02/27 01:07:08;;;;;;;0.45;0.35;;;;;;;8.61;42.10;100472.91;5054472;28;20036;-76
2023/02/27 01:10:00;;;;;;;3.63;0.43;;;;;;;8.52;42.25;100470.16;5058343;28;20527;-76
2023/02/27 01:12:50;;;;;;;0.30;0.30;;;;;;;8.47;41.61;100467.56;5055693;28;20051;-76
2023/02/27 01:15:44;;;;;;;0.30;0.30;;;;;;;8.50;41.34;100477.78;5053777;28;20048;-76
2023/02/27 01:18:39;;;;;;;0.33;0.30;;;;;;;8.44;42.37;100473.56;5054557;28;20044;-77
2023/02/27 01:21:31;;;;;;;0.40;0.20;;;;;;;8.07;42.73;100474.66;5080391;28;20040;-76
2023/02/27 01:24:26;;;;;;;0.30;0.20;;;;;;;8.37;41.76;100488.66;5050568;28;20040;-76
2023/02/27 01:27:21;;;;;;;0.68;0.68;;;;;;;8.10;42.43;100489.50;5051483;28;20060;-76
2023/02/27 01:30:15;;;;;;;1.88;0.30;;;;;;;8.04;42.47;100485.28;5074339;28;20043;-76
2023/02/27 01:33:07;;;;;;;1.27;0.30;;;;;;;8.20;41.72;100483.84;5046740;28;20052;-76
2023/02/27 01:36:05;;;;;;;0.40;0.20;;;;;;;7.98;41.96;100476.47;5053484;28;20061;-76
2023/02/27 01:38:57;;;;;;;0.93;0.30;;;;;;;7.78;43.36;100479.59;5058403;28;20069;-76
2023/02/27 01:41:49;;;;;;;0.38;0.20;;;;;;;8.02;42.29;100479.41;5052990;28;20048;-76
2023/02/27 01:45:13;;;;;;;0.40;0.40;;;;;;;8.16;41.91;100482.88;5053267;28;20063;-76
2023/02/27 01:48:11;;;;;;;0.20;0.20;;;;;;;8.11;41.41;100478.38;5057891;28;20051;-76
2023/02/27 01:51:02;;;;;;;0.60;0.35;;;;;;;8.24;41.71;100484.03;5055475;28;20044;-76
2023/02/27 01:53:56;;;;;;;0.38;0.35;;;;;;;7.84;42.47;100480.31;5054616;28;20044;-77
2023/02/27 01:56:48;;;;;;;0.25;0.25;;;;;;;7.38;43.88;100499.34;5056524;28;20515;-76
2023/02/27 01:59:44;;;;;;;3.10;0.30;;;;;;;7.09;44.11;100488.78;5060158;28;20047;-76
2023/02/27 02:02:40;;;;;;;0.65;0.40;;;;;;;7.10;44.45;100487.69;5052568;28;20070;-76
2023/02/27 02:05:36;;;;;;;0.52;0.30;;;;;;;7.00;44.67;100487.88;5051587;28;20060;-76
2023/02/27 02:08:35;;;;;;;0.63;0.40;;;;;;;7.07;44.68;100488.28;5053172;28;20531;-76
2023/02/27 02:11:28;;;;;;;0.45;0.40;;;;;;;7.11;44.61;100490.09;5053389;28;20044;-76
2023/02/27 02:14:22;;;;;;;1.13;0.40;;;;;;;7.32;44.35;100495.94;5057649;28;20443;-76
2023/02/27 02:17:46;;;;;;;1.30;0.60;;;;;;;7.64;43.53;100495.06;5054430;28;20032;-76
2023/02/27 02:21:15;;;;;;;0.38;0.30;;;;;;;7.96;42.95;100497.66;5045010;28;20064;-76
2023/02/27 02:24:37;;;;;;;0.60;0.40;;;;;;;8.50;42.01;100496.75;5046294;28;20387;-76
2023/02/27 02:27:46;;;;;;;0.77;0.30;;;;;;;8.79;41.68;100501.72;5049578;28;20048;-76
2023/02/27 02:30:54;;;;;;;0.55;0.38;;;;;;;9.01;41.03;100503.63;5057090;28;20052;-76
2023/02/27 02:34:12;;;;;;;0.40;0.40;;;;;;;8.98;40.83;100507.00;5053372;28;20124;-76
2023/02/27 02:37:34;;;;;;;47.33;17.70;;;;;;;8.57;41.97;100505.25;5053721;28;20040;-76
2023/02/27 02:40:53;;;;;;;2.58;1.02;;;;;;;8.68;41.41;100510.44;5054484;28;20055;-76
2023/02/27 02:44:13;;;;;;;2.10;1.17;;;;;;;7.71;43.14;100517.91;5054909;28;20039;-76
2023/02/27 02:47:33;;;;;;;0.90;0.60;;;;;;;7.40;44.16;100526.91;5051341;28;20044;-76
2023/02/27 02:50:48;;;;;;;2.95;0.60;;;;;;;7.34;44.32;100531.59;5057526;28;20546;-76
2023/02/27 02:54:07;;;;;;;0.57;0.45;;;;;;;7.52;43.15;100525.31;5055467;28;20060;-76
2023/02/27 02:57:05;;;;;;;2.17;0.82;;;;;;;7.98;42.19;100536.03;5057372;28;20052;-76
2023/02/27 03:00:04;;;;;;;1.85;0.63;;;;;;;7.97;41.60;100539.88;5058957;28;20068;-76
2023/02/27 03:03:00;;;;;;;1.02;0.57;;;;;;;7.06;43.75;100543.47;5055521;28;20039;-76
2023/02/27 03:05:54;;;;;;;1.05;0.70;;;;;;;7.17;42.78;100547.56;5060551;28;20052;-77
2023/02/27 03:08:52;;;;;;;1.17;0.70;;;;;;;7.45;42.44;100538.44;5058029;28;20528;-76
2023/02/27 03:11:45;;;;;;;1.67;0.95;;;;;;;7.84;41.25;100553.38;5057741;28;20048;-77
2023/02/27 03:14:47;;;;;;;3.55;0.98;;;;;;;7.46;42.18;100542.75;5060507;28;20518;-77
2023/02/27 03:17:56;;;;;;;1.02;0.60;;;;;;;7.01;42.77;100555.13;5057168;28;20056;-77
2023/02/27 03:21:06;;;;;;;2.38;1.08;;;;;;;6.90;43.54;100559.13;5071538;28;20043;-76
2023/02/27 03:24:01;;;;;;;1.73;0.80;;;;;;;7.13;42.38;100562.78;5059351;28;20415;-77
2023/02/27 03:26:58;;;;;;;0.68;0.57;;;;;;;6.96;42.87;100562.56;5059784;28;20044;-77
2023/02/27 03:30:20;;;;;;;1.88;0.90;;;;;;;7.18;42.81;100568.91;5057358;28;20051;-77
2023/02/27 03:33:25;;;;;;;1.48;1.05;;;;;;;7.35;42.08;100565.66;5058325;28;20120;-77
2023/02/27 03:36:36;;;;;;;3.50;0.80;;;;;;;6.90;42.77;100569.94;5056537;28;20044;-77
2023/02/27 03:39:41;;;;;;;1.50;0.80;;;;;;;6.74;42.92;100573.97;5059710;28;20051;-77
2023/02/27 03:43:00;;;;;;;0.65;0.60;;;;;;;6.64;43.13;100577.63;5057245;28;20048;-77
2023/02/27 03:46:18;;;;;;;0.60;0.60;;;;;;;6.64;43.34;100580.31;5058368;28;20044;-77
2023/02/27 03:49:13;;;;;;;2.67;0.70;;;;;;;6.84;43.11;100582.72;5059064;28;20044;-77
2023/02/27 03:52:05;;;;;;;1.27;0.90;;;;;;;6.74;42.94;100588.28;5058774;28;20044;-77
2023/02/27 03:55:02;;;;;;;1.75;0.75;;;;;;;7.38;42.11;100575.06;5055990;28;20527;-77
2023/02/27 03:57:57;;;;;;;3.25;0.70;;;;;;;7.52;41.30;100587.53;5056777;28;20059;-74
2023/02/27 04:00:52;;;;;;;2.65;0.73;;;;;;;7.67;40.67;100581.84;5053730;28;20407;-75
2023/02/27 04:03:54;;;;;;;0.73;0.60;;;;;;;7.29;41.54;100585.78;5053626;28;20527;-75
2023/02/27 04:07:26;;;;;;;1.10;0.80;;;;;;;7.00;41.82;100591.41;5055621;28;20507;-75
2023/02/27 04:10:28;;;;;;;1.02;0.80;;;;;;;6.95;41.91;100585.28;5050651;28;20048;-75
2023/02/27 04:13:40;;;;;;;1.73;0.60;;;;;;;6.92;41.83;100600.16;5033418;28;20044;-75
2023/02/27 04:16:56;;;;;;;2.20;0.90;;;;;;;6.79;42.22;100596.31;5033678;28;20052;-75
2023/02/27 04:20:16;;;;;;;1.02;0.40;;;;;;;6.70;42.29;100598.06;5044202;28;20052;-75
2023/02/27 04:23:30;;;;;;;0.50;0.50;;;;;;;6.74;42.27;100604.50;5053133;28;20044;-75
2023/02/27 04:26:42;;;;;;;1.42;0.68;;;;;;;6.46;42.17;100605.41;5057657;28;20044;-75
2023/02/27 04:29:49;;;;;;;0.60;0.60;;;;;;;6.50;42.74;100602.94;5053166;28;20546;-75
2023/02/27 04:32:49;;;;;;;0.70;0.60;;;;;;;6.53;42.36;100608.56;5052928;28;20048;-75
2023/02/27 04:35:53;;;;;;;0.75;0.52;;;;;;;6.69;42.39;100609.97;5054823;28;20060;-75
2023/02/27 04:39:00;;;;;;;6.03;0.88;;;;;;;6.74;42.07;100599.09;5044369;28;20052;-75
2023/02/27 04:41:59;;;;;;;2.08;0.60;;;;;;;6.62;41.89;100604.09;5048217;28;20107;-75
2023/02/27 04:44:56;;;;;;;0.63;0.60;;;;;;;6.67;42.29;100608.63;5052762;28;20052;-75
2023/02/27 04:47:52;;;;;;;0.43;0.43;;;;;;;6.61;41.72;100613.31;5055883;28;20048;-75
2023/02/27 04:50:49;;;;;;;0.75;0.57;;;;;;;6.59;41.60;100607.41;5052330;28;20052;-75
2023/02/27 04:53:47;;;;;;;2.30;0.50;;;;;;;6.78;41.61;100612.81;5052112;28;20044;-75
2023/02/27 04:56:43;;;;;;;0.82;0.52;;;;;;;6.73;41.19;100608.28;5055051;28;20515;-75
2023/02/27 04:59:41;;;;;;;4.78;0.70;;;;;;;6.94;41.01;100608.78;5052715;28;20063;-75
2023/02/27 05:02:43;;;;;;;1.27;0.55;;;;;;;7.03;41.01;100606.22;5048495;28;20052;-75
2023/02/27 05:05:39;;;;;;;0.90;0.70;;;;;;;7.32;40.70;100612.22;5032748;28;20052;-75
2023/02/27 05:08:42;;;;;;;0.20;0.20;;;;;;;7.35;40.38;100611.66;5032082;28;20397;-75
2023/02/27 05:11:59;;;;;;;0.30;0.30;;;;;;;7.41;39.83;100613.19;5043526;28;20051;-75
2023/02/27 05:15:10;;;;;;;1.77;0.85;;;;;;;7.41;38.96;100613.19;5052470;28;20047;-75
2023/02/27 05:18:13;;;;;;;1.38;0.50;;;;;;;7.42;38.64;100605.84;5052348;28;20043;-75
2023/02/27 05:21:28;;;;;;;1.25;0.50;;;;;;;7.40;38.62;100619.69;5054567;28;20059;-75
2023/02/27 05:25:05;;;;;;;0.60;0.60;;;;;;;7.48;38.98;100610.88;5032373;28;20044;-75
2023/02/27 05:28:01;;;;;;;;;;;;;;;7.50;38.79;100614.09;5059553;28;20048;-75
2023/02/27 05:31:16;;;;;;;2.78;1.08;;;;;;;7.73;38.49;100610.41;5032220;28;19917;-75
2023/02/27 05:34:18;;;;;;;0.50;0.40;;;;;;;7.68;38.82;100615.13;5051639;28;20044;-75
2023/02/27 05:37:17;;;;;;;;;;;;;;;7.67;38.53;100627.03;5055358;28;20538;-73
2023/02/27 05:40:09;;;;;;;;;;;;;;;7.36;39.02;100629.50;5052450;28;19913;-73
2023/02/27 05:43:09;;;;;;;;;;;;;;;7.21;39.46;100624.34;5050934;28;19913;-73
2023/02/27 05:46:02;;;;;;;;;;;;;;;7.67;45.86;100632.47;5053801;28;19912;-78
2023/02/27 05:48:55;;;;;;;;;;;;;;;9.29;42.67;100640.75;5058508;28;19916;-79
2023/02/27 05:51:48;;;;;;;;;;;;;;;9.07;40.64;100637.22;5049401;28;19920;-78
2023/02/27 05:55:03;;;;;;;;;;;;;;;9.01;40.40;100640.06;5050964;28;19912;-78
2023/02/27 05:57:58;;;;;;;;;;;;;;;9.29;43.55;100645.38;5052234;28;20384;-78
2023/02/27 06:00:58;;;;;;;;;;;;;;;9.09;41.19;100640.44;5049821;28;19912;-78
2023/02/27 06:03:47;;;;;;;;;;;;;;;9.34;40.50;100647.97;5055792;28;19917;-79
2023/02/27 06:06:40;;;;;;;;;;;;;;;9.41;41.58;100654.56;5053774;28;19916;-79
2023/02/27 06:09:32;;;;;;;;;;;;;;;9.36;40.44;100651.16;5051840;28;19917;-78
2023/02/27 06:12:24;;;;;;;;;;;;;;;9.34;41.52;100664.25;5056521;28;20299;-80
2023/02/27 06:15:14;;;;;;;;;;;;;;;9.28;43.52;100660.88;5059914;28;19917;-78
2023/02/27 06:18:06;;;;;;;;;;;;;;;9.40;41.72;100669.22;5052071;28;19916;-79
2023/02/27 06:20:58;;;;;;;;;;;;;;;9.36;42.27;100670.97;5064844;28;19920;-79
2023/02/27 06:23:50;;;;;;;;;;;;;;;9.15;40.79;100672.53;5090984;28;19912;-78
2023/02/27 06:26:42;;;;;;;;;;;;;;;9.41;41.43;100684.41;5070985;28;19913;-79
2023/02/27 06:29:34;;;;;;;;;;;;;;;9.29;41.15;100686.88;5062589;28;19917;-80
2023/02/27 06:32:26;;;;;;;;;;;;;;;9.17;41.30;100686.63;5062381;28;19916;-78
2023/02/27 06:35:18;;;;;;;;;;;;;;;9.34;45.43;100696.81;5058952;28;19913;-78
2023/02/27 06:38:11;;;;;;;;;;;;;;;9.04;40.93;100697.50;5077943;28;19913;-78
2023/02/27 06:41:03;;;;;;;;;;;;;;;9.07;39.64;100703.13;5059976;28;19913;-78
2023/02/27 06:43:55;;;;;;;;;;;;;;;8.66;39.50;100705.91;5060282;28;19913;-78
2023/02/27 06:46:47;;;;;;;;;;;;;;;8.56;38.61;100709.63;5056605;28;19917;-78
2023/02/27 06:49:39;;;;;;;;;;;;;;;7.80;40.40;100718.31;5054329;28;19917;-78
2023/02/27 06:52:31;;;;;;;;;;;;;;;8.06;40.07;100727.63;5058943;28;19912;-78
2023/02/27 06:55:23;;;;;;;;;;;;;;;7.99;40.17;100723.66;5054309;28;20322;-78
2023/02/27 06:58:15;;;;;;;;;;;;;;;7.73;39.45;100736.81;5055156;28;19913;-73
2023/02/27 07:01:07;;;;;;;;;;;;;;;7.38;39.80;100735.47;5054706;28;19913;-73
2023/02/27 07:03:59;;;;;;;;;;;;;;;7.53;45.31;100746.06;5039397;28;19916;-74
2023/02/27 07:06:51;;;;;;;;;;;;;;;7.31;39.65;100745.88;5048390;28;19913;-73
2023/02/27 07:09:43;;;;;;;;;;;;;;;7.14;40.17;100742.88;5051540;28;19921;-73
2023/02/27 07:12:36;;;;;;;;;;;;;;;6.95;40.04;100758.28;5049898;28;19912;-73
2023/02/27 07:15:28;;;;;;;;;;;;;;;7.13;39.82;100760.19;5078696;28;19913;-73
2023/02/27 07:18:17;;;;;;;;;;;;;;;6.90;41.14;100761.03;5051558;28;20295;-73
2023/02/27 07:21:09;;;;;;;;;;;;;;;6.79;41.02;100768.47;5047319;28;19913;-73
2023/02/27 07:24:01;;;;;;;;;;;;;;;6.69;41.41;100777.50;5054982;28;19913;-73
2023/02/27 07:26:53;;;;;;;;;;;;;;;7.51;42.53;100769.94;5054605;28;19917;-73
2023/02/27 07:29:45;;;;;;;;;;;;;;;6.45;41.65;100784.75;5052730;28;19925;-73
2023/02/27 07:32:37;;;;;;;;;;;;;;;6.87;40.96;100784.03;5046867;28;19916;-73
2023/02/27 07:35:29;;;;;;;;;;;;;;;6.64;41.34;100796.47;5050097;28;19913;-73
2023/02/27 07:38:21;;;;;;;;;;;;;;;6.47;41.80;100787.19;5054737;28;19913;-73
2023/02/27 07:41:13;;;;;;;;;;;;;;;6.52;41.76;100795.22;5054646;28;19913;-73
2023/02/27 07:44:05;;;;;;;;;;;;;;;6.37;41.48;100793.50;5048277;28;19913;-73
2023/02/27 07:46:57;;;;;;;;;;;;;;;6.36;41.78;100798.09;5054254;28;19917;-73
2023/02/27 07:49:47;;;;;;;;;;;;;;;6.51;41.48;100797.13;5054306;28;19917;-73
2023/02/27 07:52:39;;;;;;;;;;;;;;;6.48;43.19;100795.00;5053968;28;20303;-73
2023/02/27 07:55:31;;;;;;;;;;;;;;;6.73;43.15;100805.53;5054575;28;19913;-78
2023/02/27 07:58:23;;;;;;;;;;;;;;;6.58;41.26;100804.91;5054443;28;19912;-74
2023/02/27 08:01:15;;;;;;;;;;;;;;;7.35;46.65;100813.72;5050290;28;19913;-73
2023/02/27 08:04:07;;;;;;;;;;;;;;;7.58;40.69;100813.63;5053804;28;19916;-73
2023/02/27 08:06:59;;;;;;;;;;;;;;;6.72;41.08;100808.53;5053860;28;19916;-73
2023/02/27 08:09:51;;;;;;;;;;;;;;;7.69;40.60;100812.41;5053913;28;19917;-73
2023/02/27 08:12:43;;;;;;;;;;;;;;;6.79;40.56;100809.81;5053757;28;20295;-73
2023/02/27 08:15:32;;;;;;;;;;;;;;;6.76;40.39;100809.56;5053994;28;19917;-72
2023/02/27 08:18:24;;;;;;;;;;;;;;;6.75;40.52;100810.66;5054010;28;19912;-74
2023/02/27 08:21:16;;;;;;;;;;;;;;;6.62;40.48;100816.75;5052359;28;19917;-75
2023/02/27 08:24:08;;;;;;;;;;;;;;;6.95;40.83;100818.53;5053713;28;19913;-74
2023/02/27 08:27:01;;;;;;;;;;;;;;;6.90;40.35;100824.00;5053749;28;19916;-74
2023/02/27 08:29:53;;;;;;;;;;;;;;;7.03;39.93;100817.09;5053489;28;19917;-75
2023/02/27 08:32:45;;;;;;;;;;;;;;;7.38;40.62;100824.75;5053048;28;19913;-75
2023/02/27 08:35:37;;;;;;;;;;;;;;;8.03;41.91;100828.38;5058265;28;20382;-75
2023/02/27 08:38:29;;;;;;;;;;;;;;;7.98;40.36;100822.25;5051990;28;20291;-75
2023/02/27 08:41:21;;;;;;;;;;;;;;;7.59;39.44;100817.97;5053128;28;20291;-75
2023/02/27 08:44:13;;;;;;;;;;;;;;;7.88;39.03;100825.09;5048968;28;19912;-75
2023/02/27 08:47:05;;;;;;;;;;;;;;;8.12;37.77;100829.34;5049383;28;19913;-75
2023/02/27 08:49:57;;;;;;;;;;;;;;;7.30;38.42;100831.63;5044051;28;20391;-75
2023/02/27 08:52:49;;;;;;;;;;;;;;;7.97;37.80;100826.88;5052763;28;20375;-75
2023/02/27 08:55:41;;;;;;;;;;;;;;;8.02;38.75;100826.00;5052919;28;19913;-75
2023/02/27 08:58:33;;;;;;;;;;;;;;;8.35;39.78;100816.78;5053313;28;19920;-75
2023/02/27 09:01:26;;;;;;;;;;;;;;;7.95;37.69;100820.94;5051700;28;19913;-74
2023/02/27 09:04:19;;;;;;;;;;;;;;;8.07;37.21;100828.63;5075059;28;19912;-75
2023/02/27 09:07:11;;;;;;;;;;;;;;;7.84;37.33;100832.22;5036355;28;19913;-75
2023/02/27 09:10:03;;;;;;;;;;;;;;;7.78;37.91;100838.78;5052413;28;19917;-75
2023/02/27 09:12:55;;;;;;;;;;;;;;;7.83;37.73;100846.84;5051481;28;19912;-74
2023/02/27 09:15:47;;;;;;;;;;;;;;;7.97;37.01;100834.19;5052760;28;19916;-74
2023/02/27 09:18:39;;;;;;;;;;;;;;;7.85;37.07;100840.06;5052848;28;20295;-75
2023/02/27 09:21:31;;;;;;;;;;;;;;;8.09;36.79;100837.22;5052204;28;19913;-74
2023/02/27 09:24:23;;;;;;;;;;;;;;;8.11;37.83;100838.56;5046719;28;19913;-74
2023/02/27 09:27:15;;;;;;;;;;;;;;;8.26;36.72;100842.13;5045821;28;19912;-75
2023/02/27 09:30:07;;;;;;;;;;;;;;;8.18;37.01;100838.97;5052404;28;19920;-74
2023/02/27 09:33:00;;;;;;;;;;;;;;;8.21;37.05;100843.00;5053269;28;19913;-75
2023/02/27 09:35:52;;;;;;;;;;;;;;;8.36;37.20;100850.09;5052481;28;20299;-75
2023/02/27 09:38:43;;;;;;;;;;;;;;;8.04;37.08;100853.56;5052517;28;19913;-75
2023/02/27 09:41:36;;;;;;;;;;;;;;;7.85;36.85;100867.13;5052108;28;19913;-75
2023/02/27 09:44:30;;;;;;;;;;;;;;;7.91;36.58;100859.72;5044771;28;19916;-75
2023/02/27 09:47:25;;;;;;;;;;;;;;;7.85;36.44;100867.13;5046445;28;19913;-75
2023/02/27 09:50:34;;;;;;;;;;;;;;;7.89;37.05;100872.75;5045818;28;19921;-75
2023/02/27 09:53:29;;;;;;;;;;;;;;;7.93;37.16;100868.34;5046741;28;19913;-75
2023/02/27 09:56:32;;;;;;;;;;;;;;;7.68;36.62;100875.75;5052173;28;19912;-75
2023/02/27 09:59:42;;;;;;;;;;;;;;;7.72;36.59;100884.88;5052164;28;19912;-75
2023/02/27 10:02:45;;;;;;;;;;;;;;;7.65;36.24;100880.94;5051670;28;19913;-74
2023/02/27 10:05:41;;;;;;;;;;;;;;;8.10;35.47;100879.47;5050972;28;19970;-74
2023/02/27 10:08:36;;;;;;;;;;;;;;;8.04;35.76;100883.34;5051772;28;19916;-75
2023/02/27 10:11:46;;;;;;;;;;;;;;;8.02;36.87;100880.16;5051669;28;20283;-75
2023/02/27 10:14:42;;;;;;;;;;;;;;;8.02;35.30;100877.44;5047413;28;19916;-75
2023/02/27 10:17:34;;;;;;;;;;;;;;;8.24;36.35;100890.34;5032021;28;19913;-75
2023/02/27 10:20:27;;;;;;;;;;;;;;;8.20;35.05;100890.16;5032067;28;19913;-75
2023/02/27 10:23:20;;;;;;;;;;;;;;;8.64;35.64;100886.19;5032409;28;19912;-74
2023/02/27 10:26:15;;;;;;;;;;;;;;;8.46;36.33;100885.16;5037275;28;19913;-75
2023/02/27 10:29:16;;;;;;;;;;;;;;;8.41;35.53;100886.03;5047635;28;19917;-74
2023/02/27 10:32:13;;;;;;;;;;;;;;;8.31;35.35;100885.41;5051281;28;19917;-75
2023/02/27 10:35:24;;;;;;;;;;;;;;;8.38;35.72;100880.44;5043823;28;19913;-75
2023/02/27 10:38:18;;;;;;;;;;;;;;;8.42;36.01;100879.53;5051639;28;20279;-75
2023/02/27 10:41:12;;;;;;;;;;;;;;;8.67;34.80;100888.31;5031693;28;19913;-74
2023/02/27 10:44:04;;;;;;;;;;;;;;;9.04;35.15;100882.72;5031861;28;19913;-74
2023/02/27 10:46:55;;;;;;;;;;;;;;;9.05;35.29;100887.06;5041487;28;20367;-75
2023/02/27 10:49:47;;;;;;;;;;;;;;;8.92;34.67;100885.97;5047979;28;19920;-75
2023/02/27 10:52:48;;;;;;;;;;;;;;;8.65;34.39;100880.47;5051165;28;19913;-75
2023/02/27 10:55:41;;;;;;;;;;;;;;;8.74;35.12;100875.16;5051597;28;19913;-75
2023/02/27 10:58:35;;;;;;;;;;;;;;;8.76;34.06;100875.69;5051571;28;19913;-75
2023/02/27 11:01:41;;;;;;;;;;;;;;;9.04;33.10;100880.03;5051590;28;19913;-75
2023/02/27 11:04:48;;;;;;;;;;;;;;;9.35;33.69;100875.59;5051488;28;19913;-74
2023/02/27 11:07:40;;;;;;;;;;;;;;;9.06;33.50;100879.72;5053654;28;19916;-75
2023/02/27 11:10:32;;;;;;;;;;;;;;;8.97;32.31;100871.50;5051153;28;19913;-75
2023/02/27 11:13:24;;;;;;;;;;;;;;;9.52;32.75;100868.75;5051595;28;20295;-75
2023/02/27 11:16:21;;;;;;;;;;;;;;;9.49;32.70;100864.75;5058690;28;19913;-74
2023/02/27 11:19:25;;;;;;;;;;;;;;;9.40;31.68;100864.63;5047955;28;19912;-74
2023/02/27 11:22:19;;;;;;;;;;;;;;;10.06;33.51;100860.44;5058108;28;19913;-75
2023/02/27 11:25:25;;;;;;;;;;;;;;;9.53;31.99;100862.22;5055409;28;19913;-72
2023/02/27 11:28:29;;;;;;;;;;;;;;;9.82;32.62;100862.66;5054869;28;19916;-72
2023/02/27 11:31:22;;;;;;;;;;;;;;;9.85;32.08;100859.34;5053329;28;19912;-72
2023/02/27 11:34:28;;;;;;;;;;;;;;;9.70;31.52;100856.97;5045958;28;19912;-72
2023/02/27 11:37:25;;;;;;;;;;;;;;;9.60;32.27;100849.03;5054629;28;20375;-71
2023/02/27 11:40:17;;;;;;;;;;;;;;;9.44;31.79;100849.38;5050687;28;20291;-74
2023/02/27 11:43:16;;;;;;;;;;;;;;;9.50;31.38;100857.41;5053998;28;19912;-74
2023/02/27 11:46:08;;;;;;;;;;;;;;;9.60;31.43;100857.19;5044464;28;19916;-73
2023/02/27 11:49:07;;;;;;;;;;;;;;;9.24;31.64;100847.09;5053988;28;19917;-74
2023/02/27 11:52:04;;;;;;;;;;;;;;;9.40;32.34;100848.34;5051626;28;20384;-74
2023/02/27 11:54:59;;;;;;;;;;;;;;;9.53;32.24;100848.66;5054168;28;19975;-74
2023/02/27 11:57:55;;;;;;;;;;;;;;;9.78;31.99;100848.88;5054064;28;20295;-74
2023/02/27 12:00:50;;;;;;;;;;;;;;;9.95;33.87;100858.28;5050943;28;19913;-74
2023/02/27 12:03:57;;;;;;;;;;;;;;;10.33;34.08;100853.31;5053779;28;19912;-74
2023/02/27 12:06:51;;;;;;;;;;;;;;;9.95;32.01;100852.88;5053340;28;19912;-74
2023/02/27 12:09:45;;;;;;;;;;;;;;;9.81;32.00;100852.88;5051685;28;19917;-74
2023/02/27 12:12:42;;;;;;;;;;;;;;;9.70;31.50;100846.88;5050917;28;19913;-74
2023/02/27 12:15:44;;;;;;;;;;;;;;;9.81;31.36;100847.47;5049810;28;19913;-74
2023/02/27 12:18:36;;;;;;;;;;;;;;;9.66;30.98;100850.50;5053645;28;19912;-74
2023/02/27 12:21:29;;;;;;;;;;;;;;;10.04;31.60;100843.66;5048830;28;20298;-74
2023/02/27 12:24:19;;;;;;;;;;;;;;;11.12;35.97;100849.53;5052190;28;19916;-74
2023/02/27 12:27:23;;;;;;;;;;;;;;;10.93;30.71;100843.56;5050214;28;19913;-74
2023/02/27 12:30:23;;;;;;;;;;;;;;;10.33;33.17;100837.00;5047839;28;19917;-74
2023/02/27 12:33:44;;;;;;;;;;;;;;;11.19;32.83;100851.81;5045884;28;19920;-74
2023/02/27 12:36:36;;;;;;;;;;;;;;;11.09;31.58;100844.75;5059727;28;19912;-76
2023/02/27 12:39:28;;;;;;;;;;;;;;;10.87;31.94;100846.75;5048689;28;19912;-75
2023/02/27 12:42:36;;;;;;;;;;;;;;;10.69;31.21;100835.78;5047063;28;19912;-76
2023/02/27 12:45:41;;;;;;;;;;;;;;;10.68;32.61;100830.66;5053449;28;19917;-75
2023/02/27 12:48:47;;;;;;;;;;;;;;;11.52;34.71;100847.59;5053255;28;20537;-75
2023/02/27 12:51:44;;;;;;;;;;;;;;;11.50;31.20;100841.66;5046568;28;19917;-75
2023/02/27 12:54:48;;;;;;;;;;;;;;;11.25;30.40;100830.69;5065772;28;19920;-76
2023/02/27 12:57:52;;;;;;;;;;;;;;;11.34;30.62;100829.59;5051980;28;19912;-75
2023/02/27 13:00:44;;;;;;;;;;;;;;;11.13;31.39;100829.38;5052943;28;20299;-76
2023/02/27 13:03:53;;;;;;;;;;;;;;;11.71;33.86;100835.56;5046942;28;20383;-75
2023/02/27 13:07:08;;;;;;;;;;;;;;;11.58;30.51;100832.66;5050173;28;19913;-75
2023/02/27 13:10:04;;;;;;;;;;;;;;;11.39;32.47;100831.38;5051717;28;19921;-76
2023/02/27 13:12:56;;;;;;;;;;;;;;;11.45;31.52;100830.09;5053724;28;19913;-75
2023/02/27 13:15:50;;;;;;;;;;;;;;;11.03;30.59;100829.66;5051161;28;20279;-76
2023/02/27 13:19:03;;;;;;;;;;;;;;;11.50;32.73;100838.13;5050261;28;19913;-76
2023/02/27 13:21:55;;;;;;;;;;;;;;;10.93;29.47;100826.44;5052642;28;19913;-75
2023/02/27 13:24:50;;;;;;;;;;;;;;;10.57;30.00;100824.69;5051174;28;19912;-75
2023/02/27 13:27:42;;;;;;;;;;;;;;;10.28;29.85;100824.34;5055711;28;19913;-75
2023/02/27 13:30:36;;;;;;;;;;;;;;;10.53;30.58;100822.91;5051962;28;19913;-75
2023/02/27 13:33:28;;;;;;;;;;;;;;;10.77;30.05;100831.47;5048887;28;19920;-74
2023/02/27 13:36:30;;;;;;;;;;;;;;;10.78;29.57;100833.09;5047426;28;19913;-74
2023/02/27 13:39:39;;;;;;;;;;;;;;;10.81;29.58;100826.25;5068106;28;19913;-75
2023/02/27 13:42:31;;;;;;;;;;;;;;;10.63;29.83;100825.34;5050964;28;20376;-75
2023/02/27 13:45:40;;;;;;;;;;;;;;;10.84;30.21;100837.28;5052142;28;19913;-75
2023/02/27 13:48:40;;;;;;;;;;;;;;;10.78;30.31;100843.16;5079560;28;19917;-75
2023/02/27 13:51:49;;;;;;;;;;;;;;;10.84;30.29;100842.72;5047493;28;19913;-74
2023/02/27 13:54:44;;;;;;;;;;;;;;;10.70;30.51;100844.75;5049237;28;19928;-75
2023/02/27 13:57:36;;;;;;;;;;;;;;;10.43;30.74;100845.72;5052322;28;20292;-75
2023/02/27 14:00:29;;;;;;;;;;;;;;;10.43;31.10;100844.91;5051974;28;19916;-75
2023/02/27 14:03:24;;;;;;;;;;;;;;;10.48;31.04;100852.94;5046277;28;19912;-75
2023/02/27 14:06:16;;;;;;;;;;;;;;;10.51;30.67;100849.59;5052146;28;19913;-75
2023/02/27 14:09:11;;;;;;;;;;;;;;;10.42;30.82;100854.16;5053452;28;19921;-77
2023/02/27 14:12:03;;;;;;;;;;;;;;;10.44;31.36;100855.47;5053278;28;19912;-76
2023/02/27 14:14:55;;;;;;;;;;;;;;;10.25;31.64;100860.31;5051965;28;19913;-76
2023/02/27 14:17:47;;;;;;;;;;;;;;;10.35;31.76;100859.25;5051896;28;19912;-76
2023/02/27 14:20:40;;;;;;;;;;;;;;;10.46;31.68;100860.63;5073459;28;20299;-75
2023/02/27 14:23:32;;;;;;;;;;;;;;;10.46;31.58;100871.50;5051598;28;19921;-75
2023/02/27 14:26:25;;;;;;;;;;;;;;;10.08;31.80;100866.38;5054356;28;19912;-75
2023/02/27 14:29:21;;;;;;;;;;;;;;;10.06;31.49;100871.31;5051602;28;19917;-75
2023/02/27 14:32:18;;;;;;;;;;;;;;;9.91;32.00;100874.38;5051502;28;19912;-75
2023/02/27 14:35:16;;;;;;;;;;;;;;;9.98;32.52;100882.13;5051857;28;19913;-75
2023/02/27 14:38:09;;;;;;;;;;;;;;;10.00;31.68;100883.44;5052164;28;19912;-76
2023/02/27 14:41:02;;;;;;;;;;;;;;;9.83;32.60;100884.06;5050680;28;19916;-74
2023/02/27 14:43:57;;;;;;;;;;;;;;;9.88;32.36;100880.44;5055511;28;19913;-75
2023/02/27 14:46:44;;;;;;;;;;;;;;;9.88;32.86;100880.44;5055518;28;19943;-75